sensor_id;sensor_type;location;lat;lon;timestamp;temperature;humidity
36292;DHT22;22327;51.208;6.418;2023-08-31T00:01:01;16.30;99.90
36292;DHT22;22327;51.208;6.418;2023-08-31T00:04:04;16.30;99.90
36292;DHT22;22327;51.208;6.418;2023-08-31T00:07:05;16.30;99.90
36292;DHT22;22327;51.208;6.418;2023-08-31T00:10:07;16.20;99.90
36292;DHT22;22327;51.208;6.418;2023-08-31T00:13:12;16.10;99.90
36292;DHT22;22327;51.208;6.418;2023-08-31T00:16:12;16.00;99.90
36292;DHT22;22327;51.208;6.418;2023-08-31T00:19:14;15.90;99.90
36292;DHT22;22327;51.208;6.418;2023-08-31T00:22:15;15.80;99.90
36292;DHT22;22327;51.208;6.418;2023-08-31T00:25:15;15.80;99.90
36292;DHT22;22327;51.208;6.418;2023-08-31T00:28:16;15.80;99.90
36292;DHT22;22327;51.208;6.418;2023-08-31T00:31:18;15.70;99.90
36292;DHT22;22327;51.208;6.418;2023-08-31T00:34:19;15.70;99.90
36292;DHT22;22327;51.208;6.418;2023-08-31T00:37:20;15.60;99.90
36292;DHT22;22327;51.208;6.418;2023-08-31T00:40:21;15.50;99.90
36292;DHT22;22327;51.208;6.418;2023-08-31T00:43:22;15.50;99.90
36292;DHT22;22327;51.208;6.418;2023-08-31T00:46:23;15.50;99.90
36292;DHT22;22327;51.208;6.418;2023-08-31T00:49:24;15.50;99.90
36292;DHT22;22327;51.208;6.418;2023-08-31T00:52:24;15.50;99.90
36292;DHT22;22327;51.208;6.418;2023-08-31T00:55:25;15.50;99.90
36292;DHT22;22327;51.208;6.418;2023-08-31T00:58:26;15.50;99.90
36292;DHT22;22327;51.208;6.418;2023-08-31T01:08:03;15.40;99.90
36292;DHT22;22327;51.208;6.418;2023-08-31T01:14:31;15.40;99.90
36292;DHT22;22327;51.208;6.418;2023-08-31T01:17:33;15.30;99.90
36292;DHT22;22327;51.208;6.418;2023-08-31T01:20:46;15.20;99.90
36292;DHT22;22327;51.208;6.418;2023-08-31T01:23:56;15.20;99.90
36292;DHT22;22327;51.208;6.418;2023-08-31T01:26:57;15.20;99.90
36292;DHT22;22327;51.208;6.418;2023-08-31T01:29:58;15.20;99.90
36292;DHT22;22327;51.208;6.418;2023-08-31T01:32:58;15.20;99.90
36292;DHT22;22327;51.208;6.418;2023-08-31T01:36:00;15.30;99.90
36292;DHT22;22327;51.208;6.418;2023-08-31T01:39:15;15.30;99.90
36292;DHT22;22327;51.208;6.418;2023-08-31T01:42:18;15.30;99.90
36292;DHT22;22327;51.208;6.418;2023-08-31T01:45:20;15.30;99.90
36292;DHT22;22327;51.208;6.418;2023-08-31T01:48:20;15.30;99.90
36292;DHT22;22327;51.208;6.418;2023-08-31T01:51:21;15.30;99.90
36292;DHT22;22327;51.208;6.418;2023-08-31T01:54:22;15.20;99.90
36292;DHT22;22327;51.208;6.418;2023-08-31T01:57:22;15.30;99.90
36292;DHT22;22327;51.208;6.418;2023-08-31T02:00:23;15.30;99.90
36292;DHT22;22327;51.208;6.418;2023-08-31T02:03:23;15.30;99.90
36292;DHT22;22327;51.208;6.418;2023-08-31T02:06:24;15.20;99.90
36292;DHT22;22327;51.208;6.418;2023-08-31T02:09:24;15.10;99.90
36292;DHT22;22327;51.208;6.418;2023-08-31T02:12:25;15.10;99.90
36292;DHT22;22327;51.208;6.418;2023-08-31T02:15:26;15.00;99.90
36292;DHT22;22327;51.208;6.418;2023-08-31T02:18:26;15.00;99.90
36292;DHT22;22327;51.208;6.418;2023-08-31T02:21:27;15.10;99.90
36292;DHT22;22327;51.208;6.418;2023-08-31T02:24:27;15.00;99.90
36292;DHT22;22327;51.208;6.418;2023-08-31T02:27:28;15.00;99.90
36292;DHT22;22327;51.208;6.418;2023-08-31T02:30:28;14.90;99.90
36292;DHT22;22327;51.208;6.418;2023-08-31T02:33:29;15.00;99.90
36292;DHT22;22327;51.208;6.418;2023-08-31T02:36:30;15.00;99.90
36292;DHT22;22327;51.208;6.418;2023-08-31T02:39:30;14.90;99.90
36292;DHT22;22327;51.208;6.418;2023-08-31T02:42:31;14.90;99.90
36292;DHT22;22327;51.208;6.418;2023-08-31T02:45:31;14.90;99.90
36292;DHT22;22327;51.208;6.418;2023-08-31T02:48:32;14.90;99.90
36292;DHT22;22327;51.208;6.418;2023-08-31T02:51:33;14.90;99.90
36292;DHT22;22327;51.208;6.418;2023-08-31T02:54:34;15.00;99.90
36292;DHT22;22327;51.208;6.418;2023-08-31T02:57:34;15.00;99.90
36292;DHT22;22327;51.208;6.418;2023-08-31T03:00:35;15.00;99.90
36292;DHT22;22327;51.208;6.418;2023-08-31T03:03:35;15.10;99.90
36292;DHT22;22327;51.208;6.418;2023-08-31T03:06:36;15.00;99.90
36292;DHT22;22327;51.208;6.418;2023-08-31T03:09:36;15.00;99.90
36292;DHT22;22327;51.208;6.418;2023-08-31T03:12:39;14.90;99.90
36292;DHT22;22327;51.208;6.418;2023-08-31T03:15:39;14.90;99.90
36292;DHT22;22327;51.208;6.418;2023-08-31T03:18:40;14.90;99.90
36292;DHT22;22327;51.208;6.418;2023-08-31T03:21:41;14.80;99.90
36292;DHT22;22327;51.208;6.418;2023-08-31T03:24:41;14.80;99.90
36292;DHT22;22327;51.208;6.418;2023-08-31T03:27:42;14.70;99.90
36292;DHT22;22327;51.208;6.418;2023-08-31T03:30:43;14.70;99.90
36292;DHT22;22327;51.208;6.418;2023-08-31T03:33:45;14.70;99.90
36292;DHT22;22327;51.208;6.418;2023-08-31T03:36:45;14.70;99.90
36292;DHT22;22327;51.208;6.418;2023-08-31T03:39:47;14.70;99.90
36292;DHT22;22327;51.208;6.418;2023-08-31T03:42:49;14.80;99.90
36292;DHT22;22327;51.208;6.418;2023-08-31T03:45:57;14.80;99.90
36292;DHT22;22327;51.208;6.418;2023-08-31T03:48:57;14.90;99.90
36292;DHT22;22327;51.208;6.418;2023-08-31T03:51:58;14.90;99.90
36292;DHT22;22327;51.208;6.418;2023-08-31T03:54:59;14.90;99.90
36292;DHT22;22327;51.208;6.418;2023-08-31T03:57:59;14.90;99.90
36292;DHT22;22327;51.208;6.418;2023-08-31T04:01:00;14.80;99.90
36292;DHT22;22327;51.208;6.418;2023-08-31T04:04:00;14.80;99.90
36292;DHT22;22327;51.208;6.418;2023-08-31T04:07:01;14.80;99.90
36292;DHT22;22327;51.208;6.418;2023-08-31T04:10:02;14.70;99.90
36292;DHT22;22327;51.208;6.418;2023-08-31T04:13:04;14.80;99.90
36292;DHT22;22327;51.208;6.418;2023-08-31T04:16:04;14.80;99.90
36292;DHT22;22327;51.208;6.418;2023-08-31T04:19:05;14.70;99.90
36292;DHT22;22327;51.208;6.418;2023-08-31T04:22:06;14.70;99.90
36292;DHT22;22327;51.208;6.418;2023-08-31T04:25:06;14.70;99.90
36292;DHT22;22327;51.208;6.418;2023-08-31T04:28:07;14.70;99.90
36292;DHT22;22327;51.208;6.418;2023-08-31T04:31:08;14.70;99.90
36292;DHT22;22327;51.208;6.418;2023-08-31T04:34:08;14.80;99.90
36292;DHT22;22327;51.208;6.418;2023-08-31T04:37:09;14.80;99.90
36292;DHT22;22327;51.208;6.418;2023-08-31T04:40:10;14.80;99.90
36292;DHT22;22327;51.208;6.418;2023-08-31T04:43:13;14.80;99.90
36292;DHT22;22327;51.208;6.418;2023-08-31T04:46:14;14.80;99.90
36292;DHT22;22327;51.208;6.418;2023-08-31T04:49:15;14.80;99.90
36292;DHT22;22327;51.208;6.418;2023-08-31T04:52:15;14.80;99.90
36292;DHT22;22327;51.208;6.418;2023-08-31T04:55:16;14.80;99.90
36292;DHT22;22327;51.208;6.418;2023-08-31T04:58:16;14.70;99.90
36292;DHT22;22327;51.208;6.418;2023-08-31T05:01:17;14.70;99.90
36292;DHT22;22327;51.208;6.418;2023-08-31T05:04:17;14.70;99.90
36292;DHT22;22327;51.208;6.418;2023-08-31T05:07:18;14.80;99.90
36292;DHT22;22327;51.208;6.418;2023-08-31T05:10:19;14.80;99.90
36292;DHT22;22327;51.208;6.418;2023-08-31T05:13:19;14.90;99.90
36292;DHT22;22327;51.208;6.418;2023-08-31T05:16:20;15.00;99.90
36292;DHT22;22327;51.208;6.418;2023-08-31T05:19:20;15.00;99.90
36292;DHT22;22327;51.208;6.418;2023-08-31T05:22:21;15.10;99.90
36292;DHT22;22327;51.208;6.418;2023-08-31T05:25:21;15.40;99.90
36292;DHT22;22327;51.208;6.418;2023-08-31T05:28:23;15.60;99.90
36292;DHT22;22327;51.208;6.418;2023-08-31T05:31:23;15.90;99.90
36292;DHT22;22327;51.208;6.418;2023-08-31T05:34:25;16.30;99.90
36292;DHT22;22327;51.208;6.418;2023-08-31T05:37:25;16.80;99.90
36292;DHT22;22327;51.208;6.418;2023-08-31T05:40:26;17.30;99.90
36292;DHT22;22327;51.208;6.418;2023-08-31T05:43:26;17.80;99.90
36292;DHT22;22327;51.208;6.418;2023-08-31T05:46:27;18.30;99.60
36292;DHT22;22327;51.208;6.418;2023-08-31T05:49:27;18.80;99.10
36292;DHT22;22327;51.208;6.418;2023-08-31T05:52:28;19.30;98.10
36292;DHT22;22327;51.208;6.418;2023-08-31T05:55:28;19.90;97.30
36292;DHT22;22327;51.208;6.418;2023-08-31T05:58:33;20.30;95.70
36292;DHT22;22327;51.208;6.418;2023-08-31T06:01:35;20.80;94.10
36292;DHT22;22327;51.208;6.418;2023-08-31T06:04:36;21.10;94.00
36292;DHT22;22327;51.208;6.418;2023-08-31T06:07:37;21.60;92.90
36292;DHT22;22327;51.208;6.418;2023-08-31T06:10:37;21.90;92.40
36292;DHT22;22327;51.208;6.418;2023-08-31T06:13:38;22.30;91.20
36292;DHT22;22327;51.208;6.418;2023-08-31T06:16:39;22.60;89.40
36292;DHT22;22327;51.208;6.418;2023-08-31T06:19:40;22.90;88.40
36292;DHT22;22327;51.208;6.418;2023-08-31T06:22:41;23.40;87.90
36292;DHT22;22327;51.208;6.418;2023-08-31T06:25:42;23.90;87.00
36292;DHT22;22327;51.208;6.418;2023-08-31T06:28:42;24.50;83.40
36292;DHT22;22327;51.208;6.418;2023-08-31T06:31:43;25.00;81.40
36292;DHT22;22327;51.208;6.418;2023-08-31T06:34:44;25.50;77.60
36292;DHT22;22327;51.208;6.418;2023-08-31T06:37:45;25.70;73.60
36292;DHT22;22327;51.208;6.418;2023-08-31T06:40:47;25.80;75.00
36292;DHT22;22327;51.208;6.418;2023-08-31T06:43:47;26.20;74.10
36292;DHT22;22327;51.208;6.418;2023-08-31T06:46:48;26.80;71.80
36292;DHT22;22327;51.208;6.418;2023-08-31T06:49:49;27.20;66.50
36292;DHT22;22327;51.208;6.418;2023-08-31T06:52:49;27.40;66.80
36292;DHT22;22327;51.208;6.418;2023-08-31T06:55:50;27.70;63.90
36292;DHT22;22327;51.208;6.418;2023-08-31T06:58:50;27.80;66.00
36292;DHT22;22327;51.208;6.418;2023-08-31T07:01:51;28.10;63.90
36292;DHT22;22327;51.208;6.418;2023-08-31T07:04:51;28.50;62.00
36292;DHT22;22327;51.208;6.418;2023-08-31T07:07:53;28.80;58.40
36292;DHT22;22327;51.208;6.418;2023-08-31T07:10:54;28.70;59.10
36292;DHT22;22327;51.208;6.418;2023-08-31T07:13:55;29.00;58.80
36292;DHT22;22327;51.208;6.418;2023-08-31T07:16:57;29.50;58.90
36292;DHT22;22327;51.208;6.418;2023-08-31T07:19:58;29.60;57.20
36292;DHT22;22327;51.208;6.418;2023-08-31T07:22:58;29.60;55.90
36292;DHT22;22327;51.208;6.418;2023-08-31T07:26:00;29.40;56.10
36292;DHT22;22327;51.208;6.418;2023-08-31T07:29:01;29.10;56.00
36292;DHT22;22327;51.208;6.418;2023-08-31T07:32:04;29.10;56.10
36292;DHT22;22327;51.208;6.418;2023-08-31T07:35:05;29.20;54.90
36292;DHT22;22327;51.208;6.418;2023-08-31T07:38:06;29.20;56.30
36292;DHT22;22327;51.208;6.418;2023-08-31T07:41:07;29.70;56.40
36292;DHT22;22327;51.208;6.418;2023-08-31T07:44:07;30.00;54.00
36292;DHT22;22327;51.208;6.418;2023-08-31T07:47:08;30.40;53.70
36292;DHT22;22327;51.208;6.418;2023-08-31T07:50:09;30.80;52.50
36292;DHT22;22327;51.208;6.418;2023-08-31T07:53:11;30.70;52.50
36292;DHT22;22327;51.208;6.418;2023-08-31T07:56:11;30.70;51.80
36292;DHT22;22327;51.208;6.418;2023-08-31T07:59:12;31.00;51.70
36292;DHT22;22327;51.208;6.418;2023-08-31T08:02:12;31.20;50.80
36292;DHT22;22327;51.208;6.418;2023-08-31T08:05:13;30.90;49.70
36292;DHT22;22327;51.208;6.418;2023-08-31T08:08:13;30.50;50.40
36292;DHT22;22327;51.208;6.418;2023-08-31T08:11:14;30.50;51.50
36292;DHT22;22327;51.208;6.418;2023-08-31T08:14:14;30.80;50.60
36292;DHT22;22327;51.208;6.418;2023-08-31T08:17:15;31.00;50.10
36292;DHT22;22327;51.208;6.418;2023-08-31T08:20:16;31.40;49.80
36292;DHT22;22327;51.208;6.418;2023-08-31T08:23:16;31.70;48.40
36292;DHT22;22327;51.208;6.418;2023-08-31T08:26:17;31.90;48.40
36292;DHT22;22327;51.208;6.418;2023-08-31T08:29:17;32.30;47.00
36292;DHT22;22327;51.208;6.418;2023-08-31T08:32:18;31.80;45.50
36292;DHT22;22327;51.208;6.418;2023-08-31T08:35:18;31.40;47.10
36292;DHT22;22327;51.208;6.418;2023-08-31T08:38:19;30.90;47.00
36292;DHT22;22327;51.208;6.418;2023-08-31T08:41:23;30.70;48.90
36292;DHT22;22327;51.208;6.418;2023-08-31T08:44:32;31.00;48.60
36292;DHT22;22327;51.208;6.418;2023-08-31T08:47:33;31.70;48.50
36292;DHT22;22327;51.208;6.418;2023-08-31T08:50:35;32.10;46.80
36292;DHT22;22327;51.208;6.418;2023-08-31T08:53:36;32.60;45.90
36292;DHT22;22327;51.208;6.418;2023-08-31T08:56:39;32.90;44.70
36292;DHT22;22327;51.208;6.418;2023-08-31T08:59:39;33.10;43.80
36292;DHT22;22327;51.208;6.418;2023-08-31T09:02:40;33.30;44.00
36292;DHT22;22327;51.208;6.418;2023-08-31T09:05:41;33.80;44.00
36292;DHT22;22327;51.208;6.418;2023-08-31T09:08:42;33.60;42.50
36292;DHT22;22327;51.208;6.418;2023-08-31T09:11:42;33.30;42.80
36292;DHT22;22327;51.208;6.418;2023-08-31T09:14:43;33.30;43.40
36292;DHT22;22327;51.208;6.418;2023-08-31T09:17:44;33.60;42.50
36292;DHT22;22327;51.208;6.418;2023-08-31T09:20:46;34.10;42.30
36292;DHT22;22327;51.208;6.418;2023-08-31T09:23:56;34.50;41.80
36292;DHT22;22327;51.208;6.418;2023-08-31T09:26:58;34.70;40.10
36292;DHT22;22327;51.208;6.418;2023-08-31T09:29:58;34.80;40.70
36292;DHT22;22327;51.208;6.418;2023-08-31T09:32:59;35.10;39.70
36292;DHT22;22327;51.208;6.418;2023-08-31T09:36:00;35.00;38.20
36292;DHT22;22327;51.208;6.418;2023-08-31T09:39:01;33.70;39.20
36292;DHT22;22327;51.208;6.418;2023-08-31T09:42:02;32.50;41.70
36292;DHT22;22327;51.208;6.418;2023-08-31T09:45:04;32.10;42.80
36292;DHT22;22327;51.208;6.418;2023-08-31T09:48:05;32.00;42.60
36292;DHT22;22327;51.208;6.418;2023-08-31T09:51:06;31.20;43.70
36292;DHT22;22327;51.208;6.418;2023-08-31T09:54:08;30.60;45.30
36292;DHT22;22327;51.208;6.418;2023-08-31T09:57:10;29.80;45.90
36292;DHT22;22327;51.208;6.418;2023-08-31T10:00:12;29.30;47.00
36292;DHT22;22327;51.208;6.418;2023-08-31T10:03:16;28.50;48.20
36292;DHT22;22327;51.208;6.418;2023-08-31T10:06:17;27.60;50.40
36292;DHT22;22327;51.208;6.418;2023-08-31T10:09:19;27.00;51.40
36292;DHT22;22327;51.208;6.418;2023-08-31T10:12:20;26.30;53.50
36292;DHT22;22327;51.208;6.418;2023-08-31T10:15:22;25.80;55.10
36292;DHT22;22327;51.208;6.418;2023-08-31T10:18:24;25.30;56.70
36292;DHT22;22327;51.208;6.418;2023-08-31T10:21:25;25.20;58.50
36292;DHT22;22327;51.208;6.418;2023-08-31T10:25:03;25.20;58.00
36292;DHT22;22327;51.208;6.418;2023-08-31T10:28:17;25.40;58.10
36292;DHT22;22327;51.208;6.418;2023-08-31T10:31:18;25.30;58.80
36292;DHT22;22327;51.208;6.418;2023-08-31T10:34:36;25.40;59.10
36292;DHT22;22327;51.208;6.418;2023-08-31T10:37:39;25.50;57.70
36292;DHT22;22327;51.208;6.418;2023-08-31T10:40:41;25.40;58.20
36292;DHT22;22327;51.208;6.418;2023-08-31T10:43:52;25.20;58.50
36292;DHT22;22327;51.208;6.418;2023-08-31T10:46:53;25.20;57.70
36292;DHT22;22327;51.208;6.418;2023-08-31T10:49:54;25.10;58.40
36292;DHT22;22327;51.208;6.418;2023-08-31T10:53:08;24.90;61.70
36292;DHT22;22327;51.208;6.418;2023-08-31T10:56:10;24.70;62.70
36292;DHT22;22327;51.208;6.418;2023-08-31T10:59:10;24.40;61.90
36292;DHT22;22327;51.208;6.418;2023-08-31T11:02:30;24.20;63.50
36292;DHT22;22327;51.208;6.418;2023-08-31T11:05:32;24.20;63.80
36292;DHT22;22327;51.208;6.418;2023-08-31T11:08:32;24.30;64.10
36292;DHT22;22327;51.208;6.418;2023-08-31T11:11:39;24.40;63.60
36292;DHT22;22327;51.208;6.418;2023-08-31T11:14:40;24.70;62.00
36292;DHT22;22327;51.208;6.418;2023-08-31T11:17:41;24.80;60.20
36292;DHT22;22327;51.208;6.418;2023-08-31T11:20:42;24.90;60.20
36292;DHT22;22327;51.208;6.418;2023-08-31T11:23:43;24.90;60.60
36292;DHT22;22327;51.208;6.418;2023-08-31T11:26:44;24.80;60.90
36292;DHT22;22327;51.208;6.418;2023-08-31T11:29:45;24.80;62.00
36292;DHT22;22327;51.208;6.418;2023-08-31T11:32:50;24.90;60.80
36292;DHT22;22327;51.208;6.418;2023-08-31T11:35:51;25.00;60.70
36292;DHT22;22327;51.208;6.418;2023-08-31T11:38:52;24.90;59.70
36292;DHT22;22327;51.208;6.418;2023-08-31T11:41:53;24.80;59.40
36292;DHT22;22327;51.208;6.418;2023-08-31T11:44:53;24.90;60.10
36292;DHT22;22327;51.208;6.418;2023-08-31T11:47:54;25.00;60.90
36292;DHT22;22327;51.208;6.418;2023-08-31T11:50:55;25.20;59.50
36292;DHT22;22327;51.208;6.418;2023-08-31T11:53:56;25.20;59.40
36292;DHT22;22327;51.208;6.418;2023-08-31T11:56:58;25.00;59.30
36292;DHT22;22327;51.208;6.418;2023-08-31T11:59:59;25.00;60.10
36292;DHT22;22327;51.208;6.418;2023-08-31T12:03:04;25.00;59.80
36292;DHT22;22327;51.208;6.418;2023-08-31T12:06:04;25.20;59.90
36292;DHT22;22327;51.208;6.418;2023-08-31T12:09:10;25.40;59.10
36292;DHT22;22327;51.208;6.418;2023-08-31T12:12:13;25.60;58.90
36292;DHT22;22327;51.208;6.418;2023-08-31T12:15:14;25.70;58.50
36292;DHT22;22327;51.208;6.418;2023-08-31T12:18:15;25.60;56.70
36292;DHT22;22327;51.208;6.418;2023-08-31T12:21:19;25.60;56.50
36292;DHT22;22327;51.208;6.418;2023-08-31T12:24:20;25.60;57.80
36292;DHT22;22327;51.208;6.418;2023-08-31T12:27:22;25.60;56.70
36292;DHT22;22327;51.208;6.418;2023-08-31T12:30:23;25.60;56.90
36292;DHT22;22327;51.208;6.418;2023-08-31T12:33:23;25.50;57.30
36292;DHT22;22327;51.208;6.418;2023-08-31T12:36:25;25.40;57.10
36292;DHT22;22327;51.208;6.418;2023-08-31T12:39:26;25.20;59.40
36292;DHT22;22327;51.208;6.418;2023-08-31T12:42:27;25.20;58.70
36292;DHT22;22327;51.208;6.418;2023-08-31T12:45:27;25.00;59.30
36292;DHT22;22327;51.208;6.418;2023-08-31T12:48:28;24.90;56.80
36292;DHT22;22327;51.208;6.418;2023-08-31T12:51:29;24.80;57.00
36292;DHT22;22327;51.208;6.418;2023-08-31T12:54:30;24.70;58.20
36292;DHT22;22327;51.208;6.418;2023-08-31T12:57:31;24.70;58.90
36292;DHT22;22327;51.208;6.418;2023-08-31T13:00:31;24.60;59.30
36292;DHT22;22327;51.208;6.418;2023-08-31T13:03:32;24.60;59.20
36292;DHT22;22327;51.208;6.418;2023-08-31T13:06:33;24.50;57.10
36292;DHT22;22327;51.208;6.418;2023-08-31T13:09:33;24.50;56.10
36292;DHT22;22327;51.208;6.418;2023-08-31T13:12:34;24.60;56.40
36292;DHT22;22327;51.208;6.418;2023-08-31T13:15:34;24.60;55.40
36292;DHT22;22327;51.208;6.418;2023-08-31T13:18:35;24.60;55.80
36292;DHT22;22327;51.208;6.418;2023-08-31T13:21:36;24.50;56.50
36292;DHT22;22327;51.208;6.418;2023-08-31T13:24:37;24.50;56.70
36292;DHT22;22327;51.208;6.418;2023-08-31T13:27:37;24.50;57.40
36292;DHT22;22327;51.208;6.418;2023-08-31T13:30:38;24.60;56.40
36292;DHT22;22327;51.208;6.418;2023-08-31T13:33:39;24.60;56.40
36292;DHT22;22327;51.208;6.418;2023-08-31T13:36:39;24.70;55.50
36292;DHT22;22327;51.208;6.418;2023-08-31T13:39:41;24.70;55.50
36292;DHT22;22327;51.208;6.418;2023-08-31T13:42:53;24.70;55.60
36292;DHT22;22327;51.208;6.418;2023-08-31T13:45:54;24.70;56.20
36292;DHT22;22327;51.208;6.418;2023-08-31T13:48:55;24.70;57.00
36292;DHT22;22327;51.208;6.418;2023-08-31T13:51:56;24.80;57.10
36292;DHT22;22327;51.208;6.418;2023-08-31T13:54:57;24.90;56.00
36292;DHT22;22327;51.208;6.418;2023-08-31T13:58:04;24.90;57.10
36292;DHT22;22327;51.208;6.418;2023-08-31T14:01:06;24.90;57.80
36292;DHT22;22327;51.208;6.418;2023-08-31T14:04:07;24.90;58.40
36292;DHT22;22327;51.208;6.418;2023-08-31T14:07:07;25.00;58.20
36292;DHT22;22327;51.208;6.418;2023-08-31T14:10:08;25.10;57.60
36292;DHT22;22327;51.208;6.418;2023-08-31T14:13:09;25.10;57.00
36292;DHT22;22327;51.208;6.418;2023-08-31T14:16:09;25.10;57.40
36292;DHT22;22327;51.208;6.418;2023-08-31T14:19:10;25.20;57.80
36292;DHT22;22327;51.208;6.418;2023-08-31T14:22:11;25.20;57.00
36292;DHT22;22327;51.208;6.418;2023-08-31T14:25:12;25.20;55.90
36292;DHT22;22327;51.208;6.418;2023-08-31T14:28:13;25.10;54.90
36292;DHT22;22327;51.208;6.418;2023-08-31T14:31:13;25.10;55.70
36292;DHT22;22327;51.208;6.418;2023-08-31T14:34:15;25.00;54.30
36292;DHT22;22327;51.208;6.418;2023-08-31T14:37:16;25.00;55.00
36292;DHT22;22327;51.208;6.418;2023-08-31T14:40:17;24.90;57.40
36292;DHT22;22327;51.208;6.418;2023-08-31T14:43:17;24.80;57.60
36292;DHT22;22327;51.208;6.418;2023-08-31T14:46:18;24.70;56.70
36292;DHT22;22327;51.208;6.418;2023-08-31T14:49:18;24.60;56.50
36292;DHT22;22327;51.208;6.418;2023-08-31T14:52:19;24.40;57.50
36292;DHT22;22327;51.208;6.418;2023-08-31T14:55:19;24.10;58.40
36292;DHT22;22327;51.208;6.418;2023-08-31T14:58:20;24.10;58.30
36292;DHT22;22327;51.208;6.418;2023-08-31T15:01:21;24.00;58.30
36292;DHT22;22327;51.208;6.418;2023-08-31T15:04:23;24.10;58.40
36292;DHT22;22327;51.208;6.418;2023-08-31T15:07:23;24.10;58.90
36292;DHT22;22327;51.208;6.418;2023-08-31T15:10:24;24.10;58.70
36292;DHT22;22327;51.208;6.418;2023-08-31T15:13:24;24.00;59.00
36292;DHT22;22327;51.208;6.418;2023-08-31T15:16:25;24.00;58.90
36292;DHT22;22327;51.208;6.418;2023-08-31T15:19:25;24.00;59.40
36292;DHT22;22327;51.208;6.418;2023-08-31T15:22:26;24.00;59.40
36292;DHT22;22327;51.208;6.418;2023-08-31T15:25:26;23.80;59.60
36292;DHT22;22327;51.208;6.418;2023-08-31T15:28:27;23.70;63.50
36292;DHT22;22327;51.208;6.418;2023-08-31T15:31:27;23.50;65.20
36292;DHT22;22327;51.208;6.418;2023-08-31T15:34:28;23.20;66.00
36292;DHT22;22327;51.208;6.418;2023-08-31T15:37:29;23.00;66.90
36292;DHT22;22327;51.208;6.418;2023-08-31T15:40:29;22.90;67.70
36292;DHT22;22327;51.208;6.418;2023-08-31T15:43:31;22.80;69.00
36292;DHT22;22327;51.208;6.418;2023-08-31T15:46:32;22.80;69.50
36292;DHT22;22327;51.208;6.418;2023-08-31T15:49:33;22.80;69.40
36292;DHT22;22327;51.208;6.418;2023-08-31T15:52:33;22.80;70.00
36292;DHT22;22327;51.208;6.418;2023-08-31T15:55:34;22.90;70.20
36292;DHT22;22327;51.208;6.418;2023-08-31T15:58:34;23.00;70.50
36292;DHT22;22327;51.208;6.418;2023-08-31T16:01:35;23.20;70.40
36292;DHT22;22327;51.208;6.418;2023-08-31T16:04:36;23.40;70.20
36292;DHT22;22327;51.208;6.418;2023-08-31T16:07:37;23.50;69.30
36292;DHT22;22327;51.208;6.418;2023-08-31T16:10:39;23.60;68.50
36292;DHT22;22327;51.208;6.418;2023-08-31T16:13:40;23.70;68.60
36292;DHT22;22327;51.208;6.418;2023-08-31T16:16:42;23.70;68.20
36292;DHT22;22327;51.208;6.418;2023-08-31T16:19:42;23.90;68.60
36292;DHT22;22327;51.208;6.418;2023-08-31T16:22:43;23.90;68.50
36292;DHT22;22327;51.208;6.418;2023-08-31T16:25:43;23.80;68.70
36292;DHT22;22327;51.208;6.418;2023-08-31T16:28:44;23.70;69.50
36292;DHT22;22327;51.208;6.418;2023-08-31T16:31:44;23.70;69.80
36292;DHT22;22327;51.208;6.418;2023-08-31T16:34:45;23.70;69.60
36292;DHT22;22327;51.208;6.418;2023-08-31T16:37:46;23.60;69.30
36292;DHT22;22327;51.208;6.418;2023-08-31T16:40:46;23.60;69.60
36292;DHT22;22327;51.208;6.418;2023-08-31T16:43:47;23.60;70.50
36292;DHT22;22327;51.208;6.418;2023-08-31T16:46:47;23.60;70.40
36292;DHT22;22327;51.208;6.418;2023-08-31T16:49:49;23.50;70.50
36292;DHT22;22327;51.208;6.418;2023-08-31T16:52:49;23.50;70.90
36292;DHT22;22327;51.208;6.418;2023-08-31T16:55:50;23.50;70.90
36292;DHT22;22327;51.208;6.418;2023-08-31T16:58:50;23.50;71.20
36292;DHT22;22327;51.208;6.418;2023-08-31T17:01:53;23.50;71.30
36292;DHT22;22327;51.208;6.418;2023-08-31T17:04:54;23.50;70.90
36292;DHT22;22327;51.208;6.418;2023-08-31T17:07:55;23.40;70.30
36292;DHT22;22327;51.208;6.418;2023-08-31T17:10:56;23.50;70.70
36292;DHT22;22327;51.208;6.418;2023-08-31T17:13:56;23.60;70.00
36292;DHT22;22327;51.208;6.418;2023-08-31T17:16:57;23.60;69.60
36292;DHT22;22327;51.208;6.418;2023-08-31T17:20:01;23.50;67.20
36292;DHT22;22327;51.208;6.418;2023-08-31T17:23:01;23.30;67.70
36292;DHT22;22327;51.208;6.418;2023-08-31T17:26:03;23.10;66.40
36292;DHT22;22327;51.208;6.418;2023-08-31T17:29:03;22.90;67.50
36292;DHT22;22327;51.208;6.418;2023-08-31T17:32:06;22.80;67.60
36292;DHT22;22327;51.208;6.418;2023-08-31T17:35:07;22.70;68.20
36292;DHT22;22327;51.208;6.418;2023-08-31T17:38:08;22.70;68.40
36292;DHT22;22327;51.208;6.418;2023-08-31T17:41:09;22.70;68.70
36292;DHT22;22327;51.208;6.418;2023-08-31T17:44:11;22.60;69.30
36292;DHT22;22327;51.208;6.418;2023-08-31T17:47:11;22.50;69.40
36292;DHT22;22327;51.208;6.418;2023-08-31T17:50:12;22.50;69.60
36292;DHT22;22327;51.208;6.418;2023-08-31T17:53:12;22.40;70.00
36292;DHT22;22327;51.208;6.418;2023-08-31T17:56:13;22.40;70.20
36292;DHT22;22327;51.208;6.418;2023-08-31T17:59:13;22.30;70.40
36292;DHT22;22327;51.208;6.418;2023-08-31T18:02:17;22.30;70.80
36292;DHT22;22327;51.208;6.418;2023-08-31T18:05:18;22.20;71.20
36292;DHT22;22327;51.208;6.418;2023-08-31T18:08:21;22.10;71.60
36292;DHT22;22327;51.208;6.418;2023-08-31T18:11:23;22.00;72.50
36292;DHT22;22327;51.208;6.418;2023-08-31T18:14:24;21.90;72.70
36292;DHT22;22327;51.208;6.418;2023-08-31T18:17:24;21.80;73.00
36292;DHT22;22327;51.208;6.418;2023-08-31T18:20:25;21.70;73.50
36292;DHT22;22327;51.208;6.418;2023-08-31T18:23:29;21.60;73.70
36292;DHT22;22327;51.208;6.418;2023-08-31T18:26:30;21.70;74.20
36292;DHT22;22327;51.208;6.418;2023-08-31T18:29:30;21.50;74.90
36292;DHT22;22327;51.208;6.418;2023-08-31T18:32:31;21.50;75.20
36292;DHT22;22327;51.208;6.418;2023-08-31T18:35:32;21.50;75.90
36292;DHT22;22327;51.208;6.418;2023-08-31T18:38:32;21.40;76.10
36292;DHT22;22327;51.208;6.418;2023-08-31T18:41:35;21.40;76.20
36292;DHT22;22327;51.208;6.418;2023-08-31T18:44:35;21.30;76.40
36292;DHT22;22327;51.208;6.418;2023-08-31T18:47:36;21.20;76.90
36292;DHT22;22327;51.208;6.418;2023-08-31T18:50:37;21.20;77.30
36292;DHT22;22327;51.208;6.418;2023-08-31T18:53:38;21.10;77.70
36292;DHT22;22327;51.208;6.418;2023-08-31T18:56:39;21.00;77.90
36292;DHT22;22327;51.208;6.418;2023-08-31T18:59:40;20.90;78.00
36292;DHT22;22327;51.208;6.418;2023-08-31T19:02:42;20.70;78.40
36292;DHT22;22327;51.208;6.418;2023-08-31T19:05:43;20.60;78.70
36292;DHT22;22327;51.208;6.418;2023-08-31T19:08:43;20.50;79.10
36292;DHT22;22327;51.208;6.418;2023-08-31T19:11:45;20.40;79.50
36292;DHT22;22327;51.208;6.418;2023-08-31T19:14:46;20.40;79.50